sensor_id;sensor_type;location;lat;lon;timestamp;P1;durP1;ratioP1;P2;durP2;ratioP2
75997;SDS011;64685;48.762;44.822;2023-05-18T00:02:14;9.38;;;3.45;;
75997;SDS011;64685;48.762;44.822;2023-05-18T00:07:18;8.90;;;3.75;;
75997;SDS011;64685;48.762;44.822;2023-05-18T00:12:20;8.18;;;3.30;;
75997;SDS011;64685;48.762;44.822;2023-05-18T00:17:23;7.90;;;2.90;;
75997;SDS011;64685;48.762;44.822;2023-05-18T00:22:26;8.27;;;3.40;;
75997;SDS011;64685;48.762;44.822;2023-05-18T00:27:28;8.93;;;3.13;;
75997;SDS011;64685;48.762;44.822;2023-05-18T00:32:36;8.93;;;3.60;;
75997;SDS011;64685;48.762;44.822;2023-05-18T00:37:40;9.10;;;3.33;;
75997;SDS011;64685;48.762;44.822;2023-05-18T00:42:42;9.75;;;3.75;;
75997;SDS011;64685;48.762;44.822;2023-05-18T00:47:45;9.35;;;3.17;;
75997;SDS011;64685;48.762;44.822;2023-05-18T00:52:49;10.68;;;3.83;;
75997;SDS011;64685;48.762;44.822;2023-05-18T00:57:53;7.22;;;3.17;;
75997;SDS011;64685;48.762;44.822;2023-05-18T01:02:57;8.02;;;3.17;;
75997;SDS011;64685;48.762;44.822;2023-05-18T01:08:01;7.57;;;2.72;;
75997;SDS011;64685;48.762;44.822;2023-05-18T01:13:05;10.13;;;2.90;;
75997;SDS011;64685;48.762;44.822;2023-05-18T01:18:26;8.43;;;3.40;;
75997;SDS011;64685;48.762;44.822;2023-05-18T01:23:39;7.00;;;2.47;;
75997;SDS011;64685;48.762;44.822;2023-05-18T01:28:59;9.95;;;3.90;;
75997;SDS011;64685;48.762;44.822;2023-05-18T01:34:05;6.18;;;2.55;;
75997;SDS011;64685;48.762;44.822;2023-05-18T01:39:08;8.07;;;3.65;;
75997;SDS011;64685;48.762;44.822;2023-05-18T01:44:17;7.65;;;2.88;;
75997;SDS011;64685;48.762;44.822;2023-05-18T01:54:44;6.20;;;2.70;;
75997;SDS011;64685;48.762;44.822;2023-05-18T01:59:51;8.73;;;3.10;;
75997;SDS011;64685;48.762;44.822;2023-05-18T02:04:56;8.32;;;3.05;;
75997;SDS011;64685;48.762;44.822;2023-05-18T02:09:59;8.88;;;3.25;;
75997;SDS011;64685;48.762;44.822;2023-05-18T02:15:05;8.30;;;3.67;;
75997;SDS011;64685;48.762;44.822;2023-05-18T02:20:09;8.55;;;3.15;;
75997;SDS011;64685;48.762;44.822;2023-05-18T02:25:12;9.32;;;3.53;;
75997;SDS011;64685;48.762;44.822;2023-05-18T02:30:14;10.85;;;3.72;;
75997;SDS011;64685;48.762;44.822;2023-05-18T02:35:18;8.88;;;3.22;;
75997;SDS011;64685;48.762;44.822;2023-05-18T02:40:20;9.57;;;3.70;;
75997;SDS011;64685;48.762;44.822;2023-05-18T02:45:23;8.15;;;3.42;;
75997;SDS011;64685;48.762;44.822;2023-05-18T02:50:26;7.25;;;3.17;;
75997;SDS011;64685;48.762;44.822;2023-05-18T02:55:29;8.40;;;3.47;;
75997;SDS011;64685;48.762;44.822;2023-05-18T03:00:48;8.05;;;3.55;;
75997;SDS011;64685;48.762;44.822;2023-05-18T03:05:53;8.73;;;4.00;;
75997;SDS011;64685;48.762;44.822;2023-05-18T03:10:56;8.73;;;3.40;;
75997;SDS011;64685;48.762;44.822;2023-05-18T03:15:59;10.30;;;4.07;;
75997;SDS011;64685;48.762;44.822;2023-05-18T03:21:02;11.35;;;3.35;;
75997;SDS011;64685;48.762;44.822;2023-05-18T03:26:05;8.32;;;3.45;;
75997;SDS011;64685;48.762;44.822;2023-05-18T03:31:11;9.82;;;4.03;;
75997;SDS011;64685;48.762;44.822;2023-05-18T03:36:14;9.80;;;4.18;;
75997;SDS011;64685;48.762;44.822;2023-05-18T03:41:18;7.80;;;3.53;;
75997;SDS011;64685;48.762;44.822;2023-05-18T03:46:20;9.95;;;3.90;;
75997;SDS011;64685;48.762;44.822;2023-05-18T03:51:23;8.68;;;3.60;;
75997;SDS011;64685;48.762;44.822;2023-05-18T03:56:27;9.88;;;3.75;;
75997;SDS011;64685;48.762;44.822;2023-05-18T04:01:32;9.18;;;3.47;;
75997;SDS011;64685;48.762;44.822;2023-05-18T04:06:35;8.15;;;4.00;;
75997;SDS011;64685;48.762;44.822;2023-05-18T04:11:38;8.90;;;4.05;;
75997;SDS011;64685;48.762;44.822;2023-05-18T04:16:40;8.60;;;4.07;;
75997;SDS011;64685;48.762;44.822;2023-05-18T04:26:48;8.90;;;4.00;;
75997;SDS011;64685;48.762;44.822;2023-05-18T04:31:51;9.73;;;4.35;;
75997;SDS011;64685;48.762;44.822;2023-05-18T04:36:55;7.60;;;4.25;;
75997;SDS011;64685;48.762;44.822;2023-05-18T04:42:01;9.27;;;4.75;;
75997;SDS011;64685;48.762;44.822;2023-05-18T04:47:05;8.93;;;4.90;;
75997;SDS011;64685;48.762;44.822;2023-05-18T04:52:11;10.32;;;4.75;;
75997;SDS011;64685;48.762;44.822;2023-05-18T04:57:13;9.90;;;4.20;;
75997;SDS011;64685;48.762;44.822;2023-05-18T05:02:16;10.88;;;4.38;;
75997;SDS011;64685;48.762;44.822;2023-05-18T05:12:22;9.75;;;4.28;;
75997;SDS011;64685;48.762;44.822;2023-05-18T05:22:27;11.35;;;5.00;;
75997;SDS011;64685;48.762;44.822;2023-05-18T05:27:30;9.85;;;4.53;;
75997;SDS011;64685;48.762;44.822;2023-05-18T05:32:33;10.65;;;5.13;;
75997;SDS011;64685;48.762;44.822;2023-05-18T05:37:37;9.48;;;4.70;;
75997;SDS011;64685;48.762;44.822;2023-05-18T05:42:41;12.45;;;4.95;;
75997;SDS011;64685;48.762;44.822;2023-05-18T05:47:46;11.70;;;4.97;;
75997;SDS011;64685;48.762;44.822;2023-05-18T05:52:52;11.77;;;5.40;;
75997;SDS011;64685;48.762;44.822;2023-05-18T05:57:57;15.45;;;5.60;;
75997;SDS011;64685;48.762;44.822;2023-05-18T06:03:00;10.25;;;5.57;;
75997;SDS011;64685;48.762;44.822;2023-05-18T06:08:07;10.02;;;4.68;;
75997;SDS011;64685;48.762;44.822;2023-05-18T06:13:11;10.82;;;4.47;;
75997;SDS011;64685;48.762;44.822;2023-05-18T06:18:25;10.68;;;5.38;;
75997;SDS011;64685;48.762;44.822;2023-05-18T06:23:33;10.82;;;5.65;;
75997;SDS011;64685;48.762;44.822;2023-05-18T06:28:36;13.65;;;6.72;;
75997;SDS011;64685;48.762;44.822;2023-05-18T06:34:01;12.65;;;6.55;;
75997;SDS011;64685;48.762;44.822;2023-05-18T06:39:05;10.77;;;7.13;;
75997;SDS011;64685;48.762;44.822;2023-05-18T06:44:08;15.70;;;7.85;;
75997;SDS011;64685;48.762;44.822;2023-05-18T06:49:12;14.73;;;8.05;;
75997;SDS011;64685;48.762;44.822;2023-05-18T06:54:14;16.23;;;8.02;;
75997;SDS011;64685;48.762;44.822;2023-05-18T06:59:17;16.27;;;7.93;;
75997;SDS011;64685;48.762;44.822;2023-05-18T07:04:20;14.73;;;8.65;;
75997;SDS011;64685;48.762;44.822;2023-05-18T07:09:24;14.18;;;7.70;;
75997;SDS011;64685;48.762;44.822;2023-05-18T07:14:26;14.85;;;7.75;;
75997;SDS011;64685;48.762;44.822;2023-05-18T07:24:31;13.05;;;6.88;;
75997;SDS011;64685;48.762;44.822;2023-05-18T07:29:34;16.85;;;7.88;;
75997;SDS011;64685;48.762;44.822;2023-05-18T07:39:39;11.70;;;6.90;;
75997;SDS011;64685;48.762;44.822;2023-05-18T07:44:41;11.80;;;6.90;;
75997;SDS011;64685;48.762;44.822;2023-05-18T07:54:47;13.43;;;7.45;;
75997;SDS011;64685;48.762;44.822;2023-05-18T07:59:49;14.10;;;8.68;;
75997;SDS011;64685;48.762;44.822;2023-05-18T08:04:52;14.88;;;7.78;;
75997;SDS011;64685;48.762;44.822;2023-05-18T08:14:57;15.48;;;9.13;;
75997;SDS011;64685;48.762;44.822;2023-05-18T08:20:00;13.63;;;7.75;;
75997;SDS011;64685;48.762;44.822;2023-05-18T08:25:05;15.30;;;8.50;;
75997;SDS011;64685;48.762;44.822;2023-05-18T08:30:08;14.68;;;8.20;;
75997;SDS011;64685;48.762;44.822;2023-05-18T08:35:11;17.20;;;7.78;;
75997;SDS011;64685;48.762;44.822;2023-05-18T08:40:13;15.55;;;8.50;;
75997;SDS011;64685;48.762;44.822;2023-05-18T08:50:21;18.10;;;9.10;;
75997;SDS011;64685;48.762;44.822;2023-05-18T08:55:26;14.80;;;8.00;;
75997;SDS011;64685;48.762;44.822;2023-05-18T09:00:31;13.85;;;8.93;;
75997;SDS011;64685;48.762;44.822;2023-05-18T09:05:35;12.73;;;7.32;;
75997;SDS011;64685;48.762;44.822;2023-05-18T09:10:38;12.80;;;7.85;;
75997;SDS011;64685;48.762;44.822;2023-05-18T09:15:41;16.58;;;8.98;;
75997;SDS011;64685;48.762;44.822;2023-05-18T09:20:44;15.93;;;8.20;;
75997;SDS011;64685;48.762;44.822;2023-05-18T09:25:47;17.67;;;9.02;;
75997;SDS011;64685;48.762;44.822;2023-05-18T09:30:52;12.65;;;7.28;;
75997;SDS011;64685;48.762;44.822;2023-05-18T09:35:55;14.45;;;7.13;;
75997;SDS011;64685;48.762;44.822;2023-05-18T09:40:58;13.60;;;6.47;;
75997;SDS011;64685;48.762;44.822;2023-05-18T09:46:05;11.38;;;6.57;;
75997;SDS011;64685;48.762;44.822;2023-05-18T09:51:12;15.80;;;8.05;;
75997;SDS011;64685;48.762;44.822;2023-05-18T09:56:18;18.20;;;8.43;;
75997;SDS011;64685;48.762;44.822;2023-05-18T10:01:21;17.70;;;9.15;;
75997;SDS011;64685;48.762;44.822;2023-05-18T10:06:25;13.88;;;7.10;;
75997;SDS011;64685;48.762;44.822;2023-05-18T10:11:31;13.43;;;6.95;;
75997;SDS011;64685;48.762;44.822;2023-05-18T10:16:34;11.38;;;6.55;;
75997;SDS011;64685;48.762;44.822;2023-05-18T10:21:37;11.35;;;6.50;;
75997;SDS011;64685;48.762;44.822;2023-05-18T10:26:40;14.45;;;6.93;;
75997;SDS011;64685;48.762;44.822;2023-05-18T10:31:44;12.73;;;6.82;;
75997;SDS011;64685;48.762;44.822;2023-05-18T10:36:48;16.20;;;10.00;;
75997;SDS011;64685;48.762;44.822;2023-05-18T10:41:51;13.00;;;7.07;;
75997;SDS011;64685;48.762;44.822;2023-05-18T10:46:57;13.50;;;6.88;;
75997;SDS011;64685;48.762;44.822;2023-05-18T10:51:59;23.42;;;9.88;;
75997;SDS011;64685;48.762;44.822;2023-05-18T10:57:04;19.80;;;7.47;;
75997;SDS011;64685;48.762;44.822;2023-05-18T11:02:07;12.80;;;7.18;;
75997;SDS011;64685;48.762;44.822;2023-05-18T11:07:11;14.45;;;6.72;;
75997;SDS011;64685;48.762;44.822;2023-05-18T11:12:17;15.88;;;7.40;;
75997;SDS011;64685;48.762;44.822;2023-05-18T11:17:23;17.90;;;8.15;;
75997;SDS011;64685;48.762;44.822;2023-05-18T11:27:47;12.82;;;6.03;;
75997;SDS011;64685;48.762;44.822;2023-05-18T11:32:51;14.82;;;6.38;;
75997;SDS011;64685;48.762;44.822;2023-05-18T11:37:53;15.40;;;6.00;;
75997;SDS011;64685;48.762;44.822;2023-05-18T11:42:59;13.40;;;5.78;;
75997;SDS011;64685;48.762;44.822;2023-05-18T11:48:01;14.35;;;6.10;;
75997;SDS011;64685;48.762;44.822;2023-05-18T11:53:05;12.38;;;5.82;;
75997;SDS011;64685;48.762;44.822;2023-05-18T11:58:08;12.65;;;5.85;;
75997;SDS011;64685;48.762;44.822;2023-05-18T12:08:17;14.15;;;6.20;;
75997;SDS011;64685;48.762;44.822;2023-05-18T12:13:20;18.38;;;8.13;;
75997;SDS011;64685;48.762;44.822;2023-05-18T12:18:26;17.00;;;8.13;;
75997;SDS011;64685;48.762;44.822;2023-05-18T12:23:34;14.27;;;6.25;;
75997;SDS011;64685;48.762;44.822;2023-05-18T12:28:40;12.90;;;6.15;;
75997;SDS011;64685;48.762;44.822;2023-05-18T12:33:42;12.60;;;5.93;;
75997;SDS011;64685;48.762;44.822;2023-05-18T12:43:54;19.55;;;7.60;;
75997;SDS011;64685;48.762;44.822;2023-05-18T12:48:57;12.68;;;6.15;;
75997;SDS011;64685;48.762;44.822;2023-05-18T12:54:02;13.35;;;5.70;;
75997;SDS011;64685;48.762;44.822;2023-05-18T12:59:06;15.57;;;6.47;;
75997;SDS011;64685;48.762;44.822;2023-05-18T13:04:09;14.52;;;7.18;;
75997;SDS011;64685;48.762;44.822;2023-05-18T13:09:13;14.73;;;6.20;;
75997;SDS011;64685;48.762;44.822;2023-05-18T13:14:19;13.55;;;5.97;;
75997;SDS011;64685;48.762;44.822;2023-05-18T13:19:26;16.50;;;5.43;;
75997;SDS011;64685;48.762;44.822;2023-05-18T13:24:28;14.98;;;6.10;;
75997;SDS011;64685;48.762;44.822;2023-05-18T13:29:31;13.38;;;5.88;;
75997;SDS011;64685;48.762;44.822;2023-05-18T13:34:35;13.77;;;5.28;;
75997;SDS011;64685;48.762;44.822;2023-05-18T13:39:37;11.90;;;5.47;;
75997;SDS011;64685;48.762;44.822;2023-05-18T13:44:40;10.43;;;5.35;;
75997;SDS011;64685;48.762;44.822;2023-05-18T13:49:42;12.77;;;5.63;;
75997;SDS011;64685;48.762;44.822;2023-05-18T13:54:44;11.68;;;6.10;;
75997;SDS011;64685;48.762;44.822;2023-05-18T13:59:47;10.07;;;5.25;;
75997;SDS011;64685;48.762;44.822;2023-05-18T14:04:49;13.20;;;5.78;;
75997;SDS011;64685;48.762;44.822;2023-05-18T14:09:52;15.68;;;6.97;;
75997;SDS011;64685;48.762;44.822;2023-05-18T14:14:54;16.58;;;8.10;;
75997;SDS011;64685;48.762;44.822;2023-05-18T14:19:57;12.13;;;5.55;;
75997;SDS011;64685;48.762;44.822;2023-05-18T14:25:00;9.73;;;4.68;;
75997;SDS011;64685;48.762;44.822;2023-05-18T14:30:02;11.93;;;4.07;;
75997;SDS011;64685;48.762;44.822;2023-05-18T14:35:07;8.05;;;3.72;;
75997;SDS011;64685;48.762;44.822;2023-05-18T14:40:09;7.95;;;4.10;;
75997;SDS011;64685;48.762;44.822;2023-05-18T14:45:12;10.25;;;4.13;;
75997;SDS011;64685;48.762;44.822;2023-05-18T14:50:14;11.30;;;4.63;;
75997;SDS011;64685;48.762;44.822;2023-05-18T14:55:17;11.95;;;4.75;;
75997;SDS011;64685;48.762;44.822;2023-05-18T15:00:20;11.27;;;4.90;;
75997;SDS011;64685;48.762;44.822;2023-05-18T15:05:22;14.60;;;5.30;;
75997;SDS011;64685;48.762;44.822;2023-05-18T15:10:25;15.85;;;6.32;;
75997;SDS011;64685;48.762;44.822;2023-05-18T15:15:27;13.02;;;5.60;;
75997;SDS011;64685;48.762;44.822;2023-05-18T15:20:30;10.70;;;5.63;;
75997;SDS011;64685;48.762;44.822;2023-05-18T15:25:33;10.35;;;5.10;;
75997;SDS011;64685;48.762;44.822;2023-05-18T15:30:35;12.77;;;5.32;;
75997;SDS011;64685;48.762;44.822;2023-05-18T15:35:38;8.38;;;3.28;;
75997;SDS011;64685;48.762;44.822;2023-05-18T15:40:40;12.80;;;3.35;;
75997;SDS011;64685;48.762;44.822;2023-05-18T15:45:49;9.13;;;2.97;;
75997;SDS011;64685;48.762;44.822;2023-05-18T15:50:51;10.27;;;3.42;;
75997;SDS011;64685;48.762;44.822;2023-05-18T15:55:54;8.65;;;3.20;;
75997;SDS011;64685;48.762;44.822;2023-05-18T16:01:00;9.85;;;3.55;;
75997;SDS011;64685;48.762;44.822;2023-05-18T16:06:02;9.45;;;3.78;;
75997;SDS011;64685;48.762;44.822;2023-05-18T16:11:05;8.48;;;3.17;;
75997;SDS011;64685;48.762;44.822;2023-05-18T16:16:08;11.73;;;3.53;;
75997;SDS011;64685;48.762;44.822;2023-05-18T16:21:15;11.23;;;4.53;;
75997;SDS011;64685;48.762;44.822;2023-05-18T16:26:18;12.00;;;4.95;;
75997;SDS011;64685;48.762;44.822;2023-05-18T16:31:20;9.40;;;4.35;;
75997;SDS011;64685;48.762;44.822;2023-05-18T16:36:23;14.30;;;6.13;;
75997;SDS011;64685;48.762;44.822;2023-05-18T16:41:27;19.58;;;9.30;;
75997;SDS011;64685;48.762;44.822;2023-05-18T16:46:29;17.85;;;9.27;;
75997;SDS011;64685;48.762;44.822;2023-05-18T16:51:32;11.10;;;5.32;;
75997;SDS011;64685;48.762;44.822;2023-05-18T16:56:34;13.38;;;4.75;;
75997;SDS011;64685;48.762;44.822;2023-05-18T17:01:37;8.75;;;3.22;;
75997;SDS011;64685;48.762;44.822;2023-05-18T17:06:39;11.30;;;3.58;;
75997;SDS011;64685;48.762;44.822;2023-05-18T17:11:42;7.28;;;3.13;;
75997;SDS011;64685;48.762;44.822;2023-05-18T17:16:45;11.35;;;3.40;;
75997;SDS011;64685;48.762;44.822;2023-05-18T17:21:48;9.23;;;3.00;;
75997;SDS011;64685;48.762;44.822;2023-05-18T17:26:51;10.63;;;3.20;;
75997;SDS011;64685;48.762;44.822;2023-05-18T17:31:53;9.45;;;2.65;;
75997;SDS011;64685;48.762;44.822;2023-05-18T17:36:56;8.88;;;2.35;;
75997;SDS011;64685;48.762;44.822;2023-05-18T17:41:59;5.93;;;2.60;;
75997;SDS011;64685;48.762;44.822;2023-05-18T17:47:02;6.75;;;2.35;;
75997;SDS011;64685;48.762;44.822;2023-05-18T17:52:05;6.13;;;1.70;;
75997;SDS011;64685;48.762;44.822;2023-05-18T17:57:08;6.90;;;2.90;;
75997;SDS011;64685;48.762;44.822;2023-05-18T18:02:10;12.45;;;5.20;;
75997;SDS011;64685;48.762;44.822;2023-05-18T18:07:15;13.50;;;6.00;;
75997;SDS011;64685;48.762;44.822;2023-05-18T18:12:17;20.38;;;8.85;;
75997;SDS011;64685;48.762;44.822;2023-05-18T18:17:20;12.70;;;5.82;;
75997;SDS011;64685;48.762;44.822;2023-05-18T18:22:24;9.70;;;4.35;;
75997;SDS011;64685;48.762;44.822;2023-05-18T18:27:26;14.73;;;5.88;;
75997;SDS011;64685;48.762;44.822;2023-05-18T18:32:29;22.63;;;7.50;;
75997;SDS011;64685;48.762;44.822;2023-05-18T18:37:32;21.98;;;8.38;;
75997;SDS011;64685;48.762;44.822;2023-05-18T18:42:34;23.17;;;11.98;;
75997;SDS011;64685;48.762;44.822;2023-05-18T18:47:37;19.45;;;11.07;;
75997;SDS011;64685;48.762;44.822;2023-05-18T18:52:40;25.55;;;10.30;;
75997;SDS011;64685;48.762;44.822;2023-05-18T18:57:43;20.58;;;8.13;;
75997;SDS011;64685;48.762;44.822;2023-05-18T19:02:46;17.88;;;8.30;;
75997;SDS011;64685;48.762;44.822;2023-05-18T19:07:48;15.48;;;7.05;;
75997;SDS011;64685;48.762;44.822;2023-05-18T19:12:57;15.93;;;6.55;;
75997;SDS011;64685;48.762;44.822;2023-05-18T19:18:01;15.07;;;6.38;;
75997;SDS011;64685;48.762;44.822;2023-05-18T19:23:05;14.40;;;4.28;;
75997;SDS011;64685;48.762;44.822;2023-05-18T19:28:07;7.22;;;2.85;;
75997;SDS011;64685;48.762;44.822;2023-05-18T19:33:10;9.35;;;2.88;;
75997;SDS011;64685;48.762;44.822;2023-05-18T19:38:13;8.15;;;3.30;;
75997;SDS011;64685;48.762;44.822;2023-05-18T19:43:15;8.65;;;3.10;;
75997;SDS011;64685;48.762;44.822;2023-05-18T19:48:18;8.27;;;3.00;;
75997;SDS011;64685;48.762;44.822;2023-05-18T19:53:20;9.05;;;2.72;;
75997;SDS011;64685;48.762;44.822;2023-05-18T19:58:23;8.77;;;3.08;;
75997;SDS011;64685;48.762;44.822;2023-05-18T20:03:26;11.65;;;3.55;;
75997;SDS011;64685;48.762;44.822;2023-05-18T20:08:29;8.93;;;2.50;;
75997;SDS011;64685;48.762;44.822;2023-05-18T20:13:32;10.82;;;3.60;;
75997;SDS011;64685;48.762;44.822;2023-05-18T20:18:34;8.68;;;3.10;;
75997;SDS011;64685;48.762;44.822;2023-05-18T20:23:37;9.45;;;3.67;;
75997;SDS011;64685;48.762;44.822;2023-05-18T20:28:39;9.80;;;3.30;;
75997;SDS011;64685;48.762;44.822;2023-05-18T20:33:42;10.43;;;3.80;;
75997;SDS011;64685;48.762;44.822;2023-05-18T20:38:45;12.75;;;4.38;;
75997;SDS011;64685;48.762;44.822;2023-05-18T20:43:47;10.13;;;3.72;;
75997;SDS011;64685;48.762;44.822;2023-05-18T20:48:52;10.45;;;3.83;;
75997;SDS011;64685;48.762;44.822;2023-05-18T20:53:56;10.98;;;5.95;;
75997;SDS011;64685;48.762;44.822;2023-05-18T20:58:59;22.50;;;10.93;;
75997;SDS011;64685;48.762;44.822;2023-05-18T21:04:04;31.45;;;13.40;;
75997;SDS011;64685;48.762;44.822;2023-05-18T21:09:07;27.70;;;14.25;;
75997;SDS011;64685;48.762;44.822;2023-05-18T21:14:09;25.23;;;12.38;;
75997;SDS011;64685;48.762;44.822;2023-05-18T21:19:12;23.13;;;10.75;;
75997;SDS011;64685;48.762;44.822;2023-05-18T21:24:15;18.00;;;9.70;;
75997;SDS011;64685;48.762;44.822;2023-05-18T21:29:17;18.67;;;7.68;;
75997;SDS011;64685;48.762;44.822;2023-05-18T21:34:20;14.40;;;7.18;;
75997;SDS011;64685;48.762;44.822;2023-05-18T21:39:22;14.48;;;6.45;;
75997;SDS011;64685;48.762;44.822;2023-05-18T21:44:25;16.17;;;7.15;;
75997;SDS011;64685;48.762;44.822;2023-05-18T21:49:27;18.88;;;6.75;;
75997;SDS011;64685;48.762;44.822;2023-05-18T21:54:30;15.25;;;6.38;;
75997;SDS011;64685;48.762;44.822;2023-05-18T21:59:34;19.25;;;6.78;;
75997;SDS011;64685;48.762;44.822;2023-05-18T22:04:36;15.80;;;5.75;;
75997;SDS011;64685;48.762;44.822;2023-05-18T22:09:39;15.70;;;5.47;;
75997;SDS011;64685;48.762;44.822;2023-05-18T22:14:41;18.58;;;5.80;;
75997;SDS011;64685;48.762;44.822;2023-05-18T22:19:44;16.52;;;6.55;;
75997;SDS011;64685;48.762;44.822;2023-05-18T22:24:47;17.90;;;5.82;;
75997;SDS011;64685;48.762;44.822;2023-05-18T22:29:49;16.63;;;5.25;;
75997;SDS011;64685;48.762;44.822;2023-05-18T22:34:52;15.73;;;5.90;;
75997;SDS011;64685;48.762;44.822;2023-05-18T22:39:57;18.92;;;6.30;;
75997;SDS011;64685;48.762;44.822;2023-05-18T22:44:59;17.92;;;6.65;;
75997;SDS011;64685;48.762;44.822;2023-05-18T22:50:05;22.10;;;6.88;;
75997;SDS011;64685;48.762;44.822;2023-05-18T22:55:08;21.05;;;7.53;;
75997;SDS011;64685;48.762;44.822;2023-05-18T23:00:14;24.33;;;8.02;;
75997;SDS011;64685;48.762;44.822;2023-05-18T23:05:17;24.67;;;9.50;;
75997;SDS011;64685;48.762;44.822;2023-05-18T23:10:20;21.90;;;7.43;;
75997;SDS011;64685;48.762;44.822;2023-05-18T23:15:22;23.05;;;7.43;;
75997;SDS011;64685;48.762;44.822;2023-05-18T23:20:25;16.45;;;6.63;;
75997;SDS011;64685;48.762;44.822;2023-05-18T23:25:28;13.50;;;4.50;;
75997;SDS011;64685;48.762;44.822;2023-05-18T23:30:30;11.38;;;4.70;;
75997;SDS011;64685;48.762;44.822;2023-05-18T23:35:33;16.48;;;4.60;;
75997;SDS011;64685;48.762;44.822;2023-05-18T23:40:37;10.45;;;4.50;;
75997;SDS011;64685;48.762;44.822;2023-05-18T23:45:39;12.00;;;5.28;;
75997;SDS011;64685;48.762;44.822;2023-05-18T23:50:42;11.07;;;5.43;;
75997;SDS011;64685;48.762;44.822;2023-05-18T23:55:46;10.52;;;5.47;;
